createdAt,value
2022-08-12T00:02:54.579Z,3.25
2022-08-12T00:06:04.512Z,2.20
2022-08-12T00:09:07.261Z,2.50
2022-08-12T00:12:07.498Z,5.00
2022-08-12T00:15:07.806Z,3.25
2022-08-12T00:18:08.242Z,3.35
2022-08-12T00:21:10.103Z,2.50
2022-08-12T00:24:10.446Z,1.75
2022-08-12T00:27:13.934Z,3.55
2022-08-12T00:30:14.770Z,1.60
2022-08-12T00:33:14.898Z,3.15
2022-08-12T00:36:34.862Z,1.50
2022-08-12T00:39:36.892Z,3.10
2022-08-12T00:42:19.988Z,1.48
2022-08-12T00:45:02.811Z,3.95
2022-08-12T00:47:45.865Z,2.85
2022-08-12T00:50:29.141Z,1.83
2022-08-12T00:53:13.717Z,2.38
2022-08-12T00:55:57.644Z,2.92
2022-08-12T00:58:43.430Z,1.10
2022-08-12T01:01:26.324Z,2.72
2022-08-12T01:04:27.883Z,1.50
2022-08-12T01:07:31.715Z,1.40
2022-08-12T01:10:33.444Z,1.20
2022-08-12T01:13:19.622Z,2.17
2022-08-12T01:16:03.914Z,1.98
2022-08-12T01:18:47.801Z,3.78
2022-08-12T01:21:42.911Z,4.10
2022-08-12T01:24:47.835Z,3.03
2022-08-12T01:27:31.333Z,3.97
2022-08-12T01:30:14.686Z,2.70
2022-08-12T01:32:59.546Z,2.72
2022-08-12T01:35:45.295Z,1.50
2022-08-12T01:38:41.908Z,1.65
2022-08-12T01:41:27.146Z,1.52
2022-08-12T01:44:10.429Z,1.77
2022-08-12T01:46:59.538Z,2.00
2022-08-12T01:49:48.772Z,1.50
2022-08-12T01:52:35.127Z,1.27
2022-08-12T01:55:20.790Z,2.13
2022-08-12T01:58:13.160Z,1.45
2022-08-12T02:00:59.289Z,1.20
2022-08-12T02:04:17.934Z,2.40
2022-08-12T02:07:21.437Z,1.58
2022-08-12T02:10:50.443Z,1.80
2022-08-12T02:13:49.558Z,1.65
2022-08-12T02:16:40.826Z,3.83
2022-08-12T02:19:35.263Z,2.20
2022-08-12T02:22:23.791Z,2.65
2022-08-12T02:25:08.569Z,2.35
2022-08-12T02:27:52.490Z,3.45
2022-08-12T02:30:42.265Z,1.60
2022-08-12T02:33:25.758Z,2.45
2022-08-12T02:36:11.397Z,1.50
2022-08-12T02:38:55.813Z,2.17
2022-08-12T02:41:43.521Z,4.07
2022-08-12T02:44:27.561Z,1.48
2022-08-12T02:47:58.852Z,2.97
2022-08-12T02:50:15.696Z,1.77
2022-08-12T02:52:59.529Z,1.52
2022-08-12T02:55:42.343Z,2.45
2022-08-12T02:58:33.273Z,3.17
2022-08-12T03:01:17.400Z,2.90
2022-08-12T03:04:03.356Z,1.50
2022-08-12T03:06:49.269Z,4.63
2022-08-12T03:09:43.090Z,2.50
2022-08-12T03:12:49.057Z,7.22
2022-08-12T03:15:33.969Z,3.63
2022-08-12T03:18:25.832Z,2.22
2022-08-12T03:21:13.842Z,1.60
2022-08-12T03:23:57.374Z,1.73
2022-08-12T03:26:41.300Z,1.30
2022-08-12T03:29:30.075Z,1.52
2022-08-12T03:32:35.867Z,4.75
2022-08-12T03:35:40.501Z,2.88
2022-08-12T03:38:24.094Z,2.28
2022-08-12T03:41:27.101Z,1.90
2022-08-12T03:44:29.798Z,2.90
2022-08-12T03:47:34.799Z,1.77
2022-08-12T03:50:35.155Z,2.80
2022-08-12T03:53:40.507Z,2.28
2022-08-12T03:56:42.375Z,1.73
2022-08-12T03:59:42.704Z,3.22
2022-08-12T04:02:26.428Z,2.38
2022-08-12T04:05:12.830Z,2.83
2022-08-12T04:08:04.664Z,2.25
2022-08-12T04:11:06.924Z,1.45
2022-08-12T04:13:51.599Z,1.88
2022-08-12T04:16:34.786Z,3.30
2022-08-12T04:19:18.264Z,2.28
2022-08-12T04:22:03.587Z,4.93
2022-08-12T04:24:50.565Z,4.72
2022-08-12T04:27:33.432Z,2.08
2022-08-12T04:30:32.375Z,2.10
2022-08-12T04:33:16.474Z,1.80
2022-08-12T04:35:59.285Z,2.55
2022-08-12T04:38:43.077Z,2.53
2022-08-12T04:41:27.744Z,2.63
2022-08-12T04:44:10.999Z,1.58
2022-08-12T04:46:56.030Z,2.38
2022-08-12T04:49:39.285Z,2.42
2022-08-12T04:52:22.012Z,3.70
2022-08-12T04:55:04.968Z,2.90
2022-08-12T04:57:49.173Z,2.15
2022-08-12T05:00:34.408Z,5.75
2022-08-12T05:03:18.719Z,3.53
2022-08-12T05:06:01.481Z,5.22
2022-08-12T05:08:44.320Z,4.53
2022-08-12T05:11:27.542Z,2.03
2022-08-12T05:14:11.790Z,4.45
2022-08-12T05:16:57.578Z,7.28
2022-08-12T05:19:43.346Z,4.65
2022-08-12T05:22:27.324Z,3.85
2022-08-12T05:25:12.080Z,2.47
2022-08-12T05:27:58.741Z,3.15
2022-08-12T05:30:42.794Z,3.33
2022-08-12T05:33:26.614Z,2.10
2022-08-12T05:36:12.781Z,3.47
2022-08-12T05:38:58.671Z,2.50
2022-08-12T05:41:41.682Z,2.72
2022-08-12T05:44:24.496Z,3.15
2022-08-12T05:47:08.965Z,1.45
2022-08-12T05:49:51.784Z,2.88
2022-08-12T05:52:36.145Z,1.70
2022-08-12T05:55:19.766Z,3.15
2022-08-12T05:58:03.387Z,2.40
2022-08-12T06:00:46.312Z,2.33
2022-08-12T06:03:29.174Z,3.38
2022-08-12T06:06:12.241Z,2.45
2022-08-12T06:08:56.521Z,1.80
2022-08-12T06:11:42.090Z,2.83
2022-08-12T06:14:45.134Z,2.47
2022-08-12T06:17:31.084Z,3.70
2022-08-12T06:20:26.971Z,2.88
2022-08-12T06:23:12.874Z,3.05
2022-08-12T06:25:57.270Z,2.10
2022-08-12T06:28:40.262Z,3.63
2022-08-12T06:31:26.091Z,2.67
2022-08-12T06:35:25.358Z,2.85
2022-08-12T06:37:19.203Z,1.33
2022-08-12T06:40:04.000Z,2.00
2022-08-12T06:42:52.247Z,3.45
2022-08-12T06:45:46.002Z,7.40
2022-08-12T06:48:29.974Z,2.58
2022-08-12T06:51:12.968Z,4.38
2022-08-12T06:53:56.494Z,5.05
2022-08-12T06:57:03.159Z,2.70
2022-08-12T06:59:44.125Z,5.13
2022-08-12T07:02:27.487Z,5.68
2022-08-12T07:05:10.623Z,3.10
2022-08-12T07:08:10.304Z,3.63
2022-08-12T07:10:59.061Z,2.75
2022-08-12T07:14:11.830Z,2.58
2022-08-12T07:16:56.827Z,3.63
2022-08-12T07:19:40.597Z,3.03
2022-08-12T07:22:28.019Z,1.73
2022-08-12T07:25:28.467Z,2.55
2022-08-12T07:28:16.254Z,2.53
2022-08-12T07:30:59.591Z,3.65
2022-08-12T07:33:43.981Z,4.05
2022-08-12T07:36:27.479Z,2.88
2022-08-12T07:39:10.871Z,2.50
2022-08-12T07:41:53.748Z,4.95
2022-08-12T07:44:36.567Z,5.40
2022-08-12T07:47:19.584Z,4.82
2022-08-12T07:50:06.823Z,4.88
2022-08-12T07:52:49.813Z,5.85
2022-08-12T07:55:32.847Z,5.07
2022-08-12T07:58:15.698Z,4.80
2022-08-12T08:00:59.883Z,2.50
2022-08-12T08:04:03.191Z,3.30
2022-08-12T08:06:47.584Z,2.13
2022-08-12T08:09:30.475Z,3.72
2022-08-12T08:12:31.187Z,5.60
2022-08-12T08:15:15.223Z,2.70
2022-08-12T08:17:59.673Z,7.90
2022-08-12T08:20:44.469Z,3.83
2022-08-12T08:23:56.039Z,2.70
2022-08-12T08:26:39.788Z,3.25
2022-08-12T08:29:23.931Z,2.50
2022-08-12T08:32:09.658Z,2.88
2022-08-12T08:34:54.558Z,4.75
2022-08-12T08:37:37.831Z,3.08
2022-08-12T08:40:39.780Z,3.08
2022-08-12T08:43:22.658Z,3.20
2022-08-12T08:46:08.684Z,2.78
2022-08-12T08:48:51.596Z,3.75
2022-08-12T08:51:34.457Z,2.67
2022-08-12T08:54:17.489Z,2.30
2022-08-12T08:57:08.238Z,2.17
2022-08-12T08:59:51.802Z,2.58
2022-08-12T09:02:34.951Z,2.83
2022-08-12T09:05:25.385Z,3.65
2022-08-12T09:08:14.471Z,2.15
2022-08-12T09:12:11.463Z,1.67
2022-08-12T09:14:29.535Z,0.93
2022-08-12T09:17:14.051Z,0.35
2022-08-12T09:20:04.628Z,0.57
2022-08-12T09:22:49.956Z,0.40
2022-08-12T09:25:33.947Z,0.20
2022-08-12T09:28:21.299Z,0.30
2022-08-12T09:32:03.990Z,0.30
2022-08-12T09:34:29.259Z,0.20
2022-08-12T09:37:20.048Z,0.20
2022-08-12T09:41:01.488Z,0.30
2022-08-12T09:43:28.698Z,0.30
2022-08-12T09:46:21.844Z,0.30
2022-08-12T09:49:13.205Z,0.38
2022-08-12T09:51:59.405Z,0.20
2022-08-12T09:54:42.982Z,0.40
2022-08-12T09:58:51.079Z,0.32
2022-08-12T10:00:33.192Z,0.30
2022-08-12T10:03:31.879Z,0.20
2022-08-12T10:06:19.559Z,0.60
2022-08-12T10:09:09.348Z,0.30
2022-08-12T10:12:12.844Z,0.30
2022-08-12T10:14:55.913Z,0.30
2022-08-12T10:18:05.948Z,0.40
2022-08-12T10:20:42.378Z,0.20
2022-08-12T10:23:39.916Z,0.35
2022-08-12T10:26:40.881Z,0.30
2022-08-12T10:30:38.394Z,0.40
2022-08-12T10:32:57.598Z,0.30
2022-08-12T10:35:43.606Z,0.20
2022-08-12T10:38:36.523Z,0.28
2022-08-12T10:41:58.451Z,0.22
2022-08-12T10:44:42.205Z,0.30
2022-08-12T10:48:07.447Z,0.20
2022-08-12T10:50:58.665Z,0.30
2022-08-12T10:53:45.843Z,0.15
2022-08-12T10:56:34.271Z,0.20
2022-08-12T10:59:18.257Z,0.20
2022-08-12T11:04:26.005Z,0.20
2022-08-12T11:07:07.085Z,0.30
2022-08-12T11:08:37.084Z,0.15
2022-08-12T11:12:35.136Z,0.28
2022-08-12T11:14:49.240Z,0.30
2022-08-12T11:17:51.970Z,0.25
2022-08-12T11:20:36.085Z,0.20
2022-08-12T11:23:25.017Z,0.20
2022-08-12T11:26:19.592Z,0.22
2022-08-12T11:29:22.764Z,0.30
2022-08-12T11:32:06.371Z,0.20
2022-08-12T11:34:53.001Z,0.13
2022-08-12T11:37:58.108Z,0.20
2022-08-12T11:40:42.735Z,0.20
2022-08-12T11:43:26.202Z,0.20
2022-08-12T11:46:18.411Z,0.20
2022-08-12T11:49:01.436Z,0.45
2022-08-12T11:51:44.472Z,0.30
2022-08-12T11:54:40.587Z,0.20
2022-08-12T11:58:17.173Z,0.20
2022-08-12T12:03:46.489Z,0.13
2022-08-12T12:06:29.679Z,1.48
2022-08-12T12:09:12.678Z,0.20
2022-08-12T12:12:00.894Z,0.20
2022-08-12T12:14:44.435Z,0.32
2022-08-12T12:17:38.773Z,0.20
2022-08-12T12:20:27.823Z,0.20
2022-08-12T12:23:29.282Z,0.13
2022-08-12T12:26:34.798Z,0.52
2022-08-12T12:30:13.683Z,0.45
2022-08-12T12:32:18.404Z,0.40
2022-08-12T12:36:05.446Z,0.20
2022-08-12T12:38:12.303Z,0.17
2022-08-12T12:40:55.704Z,0.17
2022-08-12T12:43:43.349Z,0.20
2022-08-12T12:46:27.501Z,0.43
2022-08-12T12:49:10.988Z,0.20
2022-08-12T12:52:18.556Z,0.20
2022-08-12T12:54:58.551Z,0.30
2022-08-12T12:57:59.743Z,0.10
2022-08-12T13:00:50.072Z,0.35
2022-08-12T13:03:48.906Z,1.10
2022-08-12T13:06:32.497Z,0.57
2022-08-12T13:09:17.253Z,0.20
2022-08-12T13:12:10.895Z,0.20
2022-08-12T13:14:53.759Z,0.15
2022-08-12T13:18:02.428Z,0.52
2022-08-12T13:20:43.242Z,0.30
2022-08-12T13:23:36.734Z,0.20
2022-08-12T13:26:21.253Z,0.65
2022-08-12T13:29:05.532Z,0.20
2022-08-12T13:32:17.543Z,0.10
2022-08-12T13:35:03.908Z,0.20
2022-08-12T13:37:54.643Z,0.20
2022-08-12T13:40:40.005Z,0.50
2022-08-12T13:43:41.165Z,0.73
2022-08-12T13:46:26.591Z,0.50
2022-08-12T13:49:11.614Z,0.40
2022-08-12T13:52:00.544Z,0.50
2022-08-12T13:54:43.363Z,0.20
2022-08-12T13:57:46.860Z,0.35
2022-08-12T14:00:34.412Z,0.30
2022-08-12T14:03:28.663Z,0.20
2022-08-12T14:06:30.288Z,0.20
2022-08-12T14:09:17.775Z,0.20
2022-08-12T14:12:01.112Z,0.20
2022-08-12T14:14:49.439Z,0.22
2022-08-12T14:17:38.057Z,0.40
2022-08-12T14:20:22.465Z,0.63
2022-08-12T14:24:02.090Z,0.15
2022-08-12T14:26:20.012Z,0.20
2022-08-12T14:29:04.651Z,0.20
2022-08-12T14:31:48.019Z,0.20
2022-08-12T14:34:34.201Z,0.20
2022-08-12T14:37:56.682Z,0.17
2022-08-12T14:40:23.416Z,0.20
2022-08-12T14:43:11.305Z,0.30
2022-08-12T14:45:54.248Z,0.17
2022-08-12T14:48:38.589Z,0.20
2022-08-12T14:52:42.568Z,0.10
2022-08-12T14:57:57.133Z,0.10
2022-08-12T15:00:58.646Z,0.25
2022-08-12T15:03:53.930Z,0.25
2022-08-12T15:06:52.125Z,0.35
2022-08-12T15:09:37.097Z,0.20
2022-08-12T15:12:24.639Z,0.10
2022-08-12T15:15:08.960Z,0.30
2022-08-12T15:18:02.150Z,0.22
2022-08-12T15:20:45.328Z,0.13
2022-08-12T15:23:32.906Z,0.10
2022-08-12T15:26:20.838Z,0.10
2022-08-12T15:29:10.462Z,0.10
2022-08-12T15:31:59.741Z,0.10
2022-08-12T15:34:44.128Z,0.10
2022-08-12T15:38:19.227Z,0.30
2022-08-12T15:40:35.916Z,0.40
2022-08-12T15:43:51.691Z,0.10
2022-08-12T15:46:34.167Z,0.15
2022-08-12T15:49:19.152Z,0.20
2022-08-12T15:52:05.059Z,0.13
2022-08-12T15:54:48.251Z,0.13
2022-08-12T15:57:33.367Z,0.20
2022-08-12T16:00:33.205Z,0.10
2022-08-12T16:03:19.204Z,0.10
2022-08-12T16:06:17.357Z,0.20
2022-08-12T16:09:05.431Z,0.10
2022-08-12T16:11:52.759Z,0.20
2022-08-12T16:14:35.659Z,0.13
2022-08-12T16:17:20.543Z,0.10
2022-08-12T16:20:33.352Z,0.10
2022-08-12T16:23:36.423Z,0.10
2022-08-12T16:26:27.306Z,0.10
2022-08-12T16:29:18.376Z,0.15
2022-08-12T16:32:01.358Z,0.13
2022-08-12T16:34:55.856Z,0.20
2022-08-12T16:38:25.784Z,0.20
2022-08-12T16:40:46.060Z,0.10
2022-08-12T16:43:30.427Z,0.20
2022-08-12T16:46:31.979Z,0.10
2022-08-12T16:49:16.828Z,0.15
2022-08-12T16:52:03.662Z,0.10
2022-08-12T16:54:47.800Z,0.10
2022-08-12T16:57:34.671Z,0.22
2022-08-12T17:00:18.623Z,0.17
2022-08-12T17:03:01.370Z,0.15
2022-08-12T17:05:52.680Z,0.20
2022-08-12T17:08:49.172Z,0.20
2022-08-12T17:11:39.390Z,0.20
2022-08-12T17:14:26.208Z,0.10
2022-08-12T17:17:26.186Z,0.10
2022-08-12T17:20:34.674Z,0.20
2022-08-12T17:23:21.699Z,0.10
2022-08-12T17:26:10.966Z,0.10
2022-08-12T17:28:54.399Z,0.10
2022-08-12T17:31:59.596Z,0.10
2022-08-12T17:35:00.114Z,0.20
2022-08-12T17:37:43.192Z,0.20
2022-08-12T17:40:35.673Z,0.10
2022-08-12T17:43:57.020Z,0.10
2022-08-12T17:46:33.532Z,0.73
2022-08-12T17:49:19.369Z,0.10
2022-08-12T17:52:20.953Z,0.20
2022-08-12T17:55:04.372Z,0.20
2022-08-12T17:57:48.225Z,0.20
2022-08-12T18:00:42.072Z,0.15
2022-08-12T18:04:04.189Z,0.10
2022-08-12T18:06:30.359Z,0.13
2022-08-12T18:09:15.006Z,0.40
2022-08-12T18:12:15.555Z,0.20
2022-08-12T18:15:09.437Z,0.30
2022-08-12T18:17:59.264Z,0.30
2022-08-12T18:20:45.001Z,0.20
2022-08-12T18:23:28.219Z,0.13
2022-08-12T18:26:27.126Z,1.83
2022-08-12T18:29:14.630Z,2.42
2022-08-12T18:31:59.842Z,2.10
2022-08-12T18:34:48.150Z,2.05
2022-08-12T18:37:42.245Z,1.90
2022-08-12T18:40:42.969Z,2.45
2022-08-12T18:43:27.019Z,3.38
2022-08-12T18:46:13.541Z,4.75
2022-08-12T18:48:56.836Z,2.78
2022-08-12T18:52:04.219Z,1.90
2022-08-12T18:54:52.911Z,3.70
2022-08-12T18:58:05.690Z,1.67
2022-08-12T19:00:41.563Z,5.63
2022-08-12T19:03:38.830Z,2.05
2022-08-12T19:06:24.395Z,1.50
2022-08-12T19:09:14.746Z,2.38
2022-08-12T19:12:20.204Z,1.65
2022-08-12T19:15:05.512Z,3.72
2022-08-12T19:18:00.268Z,4.43
2022-08-12T19:20:48.033Z,2.30
2022-08-12T19:23:35.083Z,2.05
2022-08-12T19:26:21.514Z,3.95
2022-08-12T19:29:10.870Z,2.22
2022-08-12T19:31:58.284Z,3.13
2022-08-12T19:35:33.051Z,2.90
2022-08-12T19:38:03.990Z,1.80
2022-08-12T19:40:49.277Z,4.78
2022-08-12T19:43:59.170Z,3.17
2022-08-12T19:46:39.982Z,1.55
2022-08-12T19:49:37.728Z,3.50
2022-08-12T19:52:21.631Z,2.20
2022-08-12T19:55:06.368Z,2.60
2022-08-12T19:58:01.518Z,4.75
2022-08-12T20:00:53.171Z,1.85
2022-08-12T20:03:39.380Z,5.20
2022-08-12T20:06:28.433Z,3.67
2022-08-12T20:09:15.672Z,2.20
2022-08-12T20:12:09.617Z,5.65
2022-08-12T20:14:58.724Z,2.85
2022-08-12T20:17:50.988Z,2.90
2022-08-12T20:20:35.437Z,3.00
2022-08-12T20:23:23.584Z,2.35
2022-08-12T20:26:20.148Z,2.78
2022-08-12T20:29:04.939Z,4.13
2022-08-12T20:31:48.887Z,4.32
2022-08-12T20:34:39.075Z,4.45
2022-08-12T20:37:22.525Z,2.35
2022-08-12T20:40:25.429Z,4.82
2022-08-12T20:43:08.721Z,6.65
2022-08-12T20:45:58.297Z,4.50
2022-08-12T20:48:44.300Z,5.47
2022-08-12T20:51:51.013Z,2.63
2022-08-12T20:54:34.125Z,4.00
2022-08-12T20:57:19.582Z,2.58
2022-08-12T21:00:02.726Z,4.22
2022-08-12T21:02:50.201Z,7.32
2022-08-12T21:06:12.281Z,2.70
2022-08-12T21:08:59.285Z,3.30
2022-08-12T21:11:43.140Z,8.52
2022-08-12T21:14:53.032Z,5.15
2022-08-12T21:18:00.360Z,4.25
2022-08-12T21:20:36.955Z,2.78
2022-08-12T21:23:21.614Z,4.63
2022-08-12T21:26:12.340Z,2.47
2022-08-12T21:29:01.938Z,3.58
2022-08-12T21:32:36.798Z,5.82
2022-08-12T21:34:51.307Z,2.70
2022-08-12T21:37:37.121Z,2.35
2022-08-12T21:40:20.587Z,4.63
2022-08-12T21:43:21.536Z,3.80
2022-08-12T21:46:04.925Z,4.18
2022-08-12T21:48:48.356Z,3.30
2022-08-12T21:51:49.707Z,2.17
2022-08-12T21:54:40.574Z,4.22
2022-08-12T21:57:23.630Z,4.60
2022-08-12T22:00:16.879Z,3.92
2022-08-12T22:03:17.802Z,5.90
2022-08-12T22:06:30.409Z,2.92
2022-08-12T22:09:16.316Z,3.35
2022-08-12T22:12:20.750Z,2.70
2022-08-12T22:15:03.841Z,3.22
2022-08-12T22:17:50.517Z,4.60
2022-08-12T22:20:40.267Z,4.78
2022-08-12T22:23:28.274Z,3.25
2022-08-12T22:26:37.390Z,2.28
2022-08-12T22:29:38.243Z,3.20
2022-08-12T22:32:26.414Z,2.80
2022-08-12T22:35:55.438Z,4.25
2022-08-12T22:38:35.639Z,5.25
2022-08-12T22:41:38.689Z,4.18
2022-08-12T22:44:54.492Z,2.40
2022-08-12T22:47:54.857Z,3.72
2022-08-12T22:50:40.407Z,2.70
2022-08-12T22:53:24.712Z,3.05
2022-08-12T22:56:20.121Z,4.80
2022-08-12T22:59:05.694Z,5.20
2022-08-12T23:02:01.540Z,3.22
2022-08-12T23:04:45.086Z,3.28
2022-08-12T23:07:36.494Z,4.45
2022-08-12T23:10:33.944Z,6.30
2022-08-12T23:13:43.575Z,3.15
2022-08-12T23:16:31.134Z,4.93
2022-08-12T23:19:17.785Z,3.67
2022-08-12T23:22:06.482Z,2.35
2022-08-12T23:25:06.905Z,2.72
2022-08-12T23:28:29.401Z,4.25
2022-08-12T23:31:13.100Z,2.40
2022-08-12T23:34:00.186Z,2.28
2022-08-12T23:36:46.094Z,3.38
2022-08-12T23:40:06.547Z,3.95
2022-08-12T23:42:33.884Z,3.15
2022-08-12T23:45:30.633Z,2.38
2022-08-12T23:48:22.872Z,4.47
2022-08-12T23:51:23.040Z,5.57
2022-08-12T23:54:07.999Z,1.98
2022-08-12T23:56:50.865Z,4.07
2022-08-12T23:59:34.276Z,4.35
